createdAt,value
2018-08-06T00:00:35.573Z,0
2018-08-06T00:01:16.137Z,0
2018-08-06T00:01:56.774Z,0
2018-08-06T00:02:37.352Z,0
2018-08-06T00:03:17.911Z,0
2018-08-06T00:03:58.480Z,0
2018-08-06T00:04:39.039Z,0
2018-08-06T00:05:19.601Z,0
2018-08-06T00:06:00.192Z,0
2018-08-06T00:06:40.766Z,0
2018-08-06T00:07:21.387Z,0
2018-08-06T00:08:01.944Z,0
2018-08-06T00:08:42.498Z,0
2018-08-06T00:09:23.071Z,0
2018-08-06T00:10:03.640Z,0
2018-08-06T00:10:44.195Z,0
2018-08-06T00:11:24.763Z,0
2018-08-06T00:12:05.332Z,0
2018-08-06T00:12:45.894Z,0
2018-08-06T00:13:26.449Z,0
2018-08-06T00:14:07.012Z,0
2018-08-06T00:14:47.577Z,0
2018-08-06T00:15:28.165Z,0
2018-08-06T00:16:08.742Z,0
2018-08-06T00:16:49.314Z,0
2018-08-06T00:17:29.915Z,0
2018-08-06T00:18:10.480Z,0
2018-08-06T00:18:51.056Z,0
2018-08-06T00:19:31.627Z,0
2018-08-06T00:20:12.193Z,0
2018-08-06T00:20:52.786Z,0
2018-08-06T00:21:33.348Z,0
2018-08-06T00:22:13.901Z,0
2018-08-06T00:22:54.448Z,0
2018-08-06T00:23:35.019Z,0
2018-08-06T00:24:15.586Z,0
2018-08-06T00:24:56.161Z,0
2018-08-06T00:25:36.743Z,0
2018-08-06T00:26:17.311Z,0
2018-08-06T00:26:57.878Z,0
2018-08-06T00:27:38.457Z,0
2018-08-06T00:28:19.036Z,0
2018-08-06T00:28:59.592Z,0
2018-08-06T00:29:40.195Z,0
2018-08-06T00:30:20.733Z,0
2018-08-06T00:31:01.284Z,0
2018-08-06T00:31:41.857Z,0
2018-08-06T00:32:22.423Z,0
2018-08-06T00:33:02.993Z,0
2018-08-06T00:33:43.626Z,0
2018-08-06T00:34:24.238Z,0
2018-08-06T00:35:04.811Z,0
2018-08-06T00:35:45.372Z,0
2018-08-06T00:36:25.953Z,0
2018-08-06T00:37:06.512Z,0
2018-08-06T00:37:47.077Z,0
2018-08-06T00:38:27.649Z,0
2018-08-06T00:39:08.322Z,0
2018-08-06T00:39:48.844Z,0
2018-08-06T00:40:29.415Z,0
2018-08-06T00:41:09.982Z,0
2018-08-06T00:41:50.554Z,0
2018-08-06T00:42:31.128Z,0
2018-08-06T00:43:11.695Z,0
2018-08-06T00:43:52.269Z,0
2018-08-06T00:44:32.850Z,0
2018-08-06T00:45:13.418Z,0
2018-08-06T00:45:53.974Z,0
2018-08-06T00:46:34.530Z,0
2018-08-06T00:47:15.095Z,0
2018-08-06T00:47:55.653Z,0
2018-08-06T00:48:36.224Z,0
2018-08-06T00:49:16.787Z,0
2018-08-06T00:49:57.484Z,0
2018-08-06T00:50:37.930Z,0
2018-08-06T00:51:18.498Z,0
2018-08-06T00:51:59.064Z,0
2018-08-06T00:52:39.641Z,0
2018-08-06T00:53:20.234Z,0
2018-08-06T00:54:00.802Z,0
2018-08-06T00:54:41.434Z,0
2018-08-06T00:55:22.004Z,0
2018-08-06T00:56:02.566Z,0
2018-08-06T00:56:43.136Z,0
2018-08-06T00:57:23.708Z,0
2018-08-06T00:58:04.279Z,0
2018-08-06T00:58:44.931Z,0
2018-08-06T00:59:25.499Z,0
2018-08-06T01:00:06.068Z,0
2018-08-06T01:00:46.640Z,0
2018-08-06T01:01:27.221Z,0
2018-08-06T01:02:07.851Z,0
2018-08-06T01:02:48.395Z,0
2018-08-06T01:03:29.081Z,0
2018-08-06T01:04:09.645Z,0
2018-08-06T01:04:50.207Z,0
2018-08-06T01:05:30.760Z,0
2018-08-06T01:06:11.335Z,0
2018-08-06T01:06:51.901Z,0
2018-08-06T01:07:32.470Z,0
2018-08-06T01:08:13.039Z,0
2018-08-06T01:08:53.628Z,0
2018-08-06T01:09:34.246Z,0
2018-08-06T01:10:14.774Z,0
2018-08-06T01:10:55.342Z,0
2018-08-06T01:11:35.901Z,0
2018-08-06T01:12:16.481Z,0
2018-08-06T01:12:57.039Z,0
2018-08-06T01:13:37.602Z,0
2018-08-06T01:14:18.208Z,0
2018-08-06T01:14:58.794Z,0
2018-08-06T01:15:39.361Z,0
2018-08-06T01:16:19.932Z,0
2018-08-06T01:17:00.484Z,0
2018-08-06T01:17:41.051Z,0
2018-08-06T01:18:21.611Z,0
2018-08-06T01:19:02.202Z,0
2018-08-06T01:19:42.816Z,0
2018-08-06T01:20:23.367Z,0
2018-08-06T01:21:03.940Z,0
2018-08-06T01:21:44.524Z,0
2018-08-06T01:22:25.091Z,0
2018-08-06T01:23:05.644Z,0
2018-08-06T01:23:46.217Z,0
2018-08-06T01:24:26.783Z,0
2018-08-06T01:25:07.353Z,0
2018-08-06T01:25:47.928Z,0
2018-08-06T01:26:28.490Z,0
2018-08-06T01:27:09.070Z,0
2018-08-06T01:27:49.643Z,0
2018-08-06T01:28:30.204Z,0
2018-08-06T01:29:10.767Z,0
2018-08-06T01:29:51.332Z,0
2018-08-06T01:30:32.086Z,0
2018-08-06T01:31:12.674Z,0
2018-08-06T01:31:53.257Z,0
2018-08-06T01:32:33.836Z,0
2018-08-06T01:33:14.407Z,0
2018-08-06T01:33:54.978Z,0
2018-08-06T01:34:35.537Z,0
2018-08-06T01:35:16.115Z,0
2018-08-06T01:35:57.265Z,0
2018-08-06T01:36:37.834Z,0
2018-08-06T01:37:18.419Z,0
2018-08-06T01:37:58.979Z,0
2018-08-06T01:38:39.550Z,0
2018-08-06T01:39:20.122Z,0
2018-08-06T01:40:00.694Z,0
2018-08-06T01:40:41.262Z,0
2018-08-06T01:41:21.823Z,0
2018-08-06T01:42:02.388Z,0
2018-08-06T01:42:42.959Z,0
2018-08-06T01:43:23.655Z,0
2018-08-06T01:44:04.090Z,0
2018-08-06T01:44:44.651Z,0
2018-08-06T01:45:25.220Z,0
2018-08-06T01:46:05.811Z,0
2018-08-06T01:46:46.415Z,0
2018-08-06T01:47:26.977Z,0
2018-08-06T01:48:07.543Z,0
2018-08-06T01:48:48.138Z,0
2018-08-06T01:49:28.692Z,0
2018-08-06T01:50:09.278Z,0
2018-08-06T01:50:49.843Z,0
2018-08-06T01:51:30.429Z,0
2018-08-06T01:52:10.999Z,0
2018-08-06T01:52:51.572Z,0
2018-08-06T01:53:32.141Z,0
2018-08-06T01:54:12.732Z,0
2018-08-06T01:54:53.299Z,0
2018-08-06T01:55:33.871Z,0
2018-08-06T01:56:14.479Z,0
2018-08-06T01:56:55.047Z,0
2018-08-06T01:57:35.619Z,0
2018-08-06T01:58:16.176Z,0
2018-08-06T01:58:56.769Z,0
2018-08-06T01:59:37.337Z,0
2018-08-06T02:00:17.906Z,0
2018-08-06T02:00:58.477Z,0
2018-08-06T02:01:39.057Z,0
2018-08-06T02:02:19.612Z,0
2018-08-06T02:03:00.190Z,0
2018-08-06T02:03:40.785Z,0
2018-08-06T02:04:21.316Z,0
2018-08-06T02:05:02.011Z,0
2018-08-06T02:05:42.609Z,0
2018-08-06T02:06:23.149Z,0
2018-08-06T02:07:03.723Z,0
2018-08-06T02:07:44.296Z,0
2018-08-06T02:08:24.867Z,0
2018-08-06T02:09:05.455Z,0
2018-08-06T02:09:46.014Z,0
2018-08-06T02:10:26.592Z,0
2018-08-06T02:11:07.124Z,0
2018-08-06T02:11:47.721Z,0
2018-08-06T02:12:28.501Z,0
2018-08-06T02:13:09.079Z,0
2018-08-06T02:13:49.641Z,0
2018-08-06T02:14:30.218Z,0
2018-08-06T02:15:10.783Z,0
2018-08-06T02:15:51.339Z,0
2018-08-06T02:16:31.912Z,0
2018-08-06T02:17:12.456Z,0
2018-08-06T02:17:53.199Z,0
2018-08-06T02:18:33.757Z,0
2018-08-06T02:19:14.343Z,0
2018-08-06T02:19:54.926Z,0
2018-08-06T02:20:35.499Z,0
2018-08-06T02:21:16.039Z,0
2018-08-06T02:21:56.627Z,0
2018-08-06T02:22:37.193Z,0
2018-08-06T02:23:17.745Z,0
2018-08-06T02:23:58.332Z,0
2018-08-06T02:24:38.901Z,0
2018-08-06T02:25:19.510Z,0
2018-08-06T02:26:00.092Z,0
2018-08-06T02:26:40.632Z,0
2018-08-06T02:27:21.211Z,0
2018-08-06T02:28:01.860Z,0
2018-08-06T02:28:42.410Z,0
2018-08-06T02:29:22.978Z,0
2018-08-06T02:30:03.536Z,0
2018-08-06T02:30:44.095Z,0
2018-08-06T02:31:24.702Z,0
2018-08-06T02:32:05.279Z,0
2018-08-06T02:32:45.841Z,0
2018-08-06T02:33:26.413Z,0
2018-08-06T02:34:06.983Z,0
2018-08-06T02:34:47.562Z,0
2018-08-06T02:35:28.108Z,0
2018-08-06T02:36:08.675Z,0
2018-08-06T02:36:49.254Z,0
2018-08-06T02:37:29.821Z,0
2018-08-06T02:38:10.382Z,0
2018-08-06T02:38:50.939Z,0
2018-08-06T02:39:31.532Z,0
2018-08-06T02:40:12.106Z,0
2018-08-06T02:40:52.924Z,0
2018-08-06T02:41:33.223Z,0
2018-08-06T02:42:13.841Z,0
2018-08-06T02:42:54.399Z,0
2018-08-06T02:43:35.026Z,0
2018-08-06T02:44:15.741Z,0
2018-08-06T02:44:56.319Z,0
2018-08-06T02:45:36.889Z,0
2018-08-06T02:46:17.448Z,0
2018-08-06T02:46:58.034Z,0
2018-08-06T02:47:38.593Z,0
2018-08-06T02:48:19.179Z,0
2018-08-06T02:48:59.746Z,0
2018-08-06T02:49:40.297Z,0
2018-08-06T02:50:20.852Z,0
2018-08-06T02:51:01.689Z,0
2018-08-06T02:51:42.231Z,0
2018-08-06T02:52:22.797Z,0
2018-08-06T02:53:03.364Z,0
2018-08-06T02:53:43.946Z,0
2018-08-06T02:54:24.510Z,0
2018-08-06T02:55:05.071Z,0
2018-08-06T02:55:45.648Z,0
2018-08-06T02:56:26.216Z,0
2018-08-06T02:57:06.787Z,0
2018-08-06T02:57:47.413Z,0
2018-08-06T02:58:27.964Z,0
2018-08-06T02:59:08.565Z,0
2018-08-06T02:59:49.145Z,0
2018-08-06T03:00:29.708Z,0
2018-08-06T03:01:10.274Z,0
2018-08-06T03:01:50.832Z,0
2018-08-06T03:02:31.388Z,0
2018-08-06T03:03:11.969Z,0
2018-08-06T03:03:52.553Z,0
2018-08-06T03:04:33.124Z,0
2018-08-06T03:05:13.690Z,0
2018-08-06T03:05:54.259Z,0
2018-08-06T03:06:34.958Z,0
2018-08-06T03:07:15.527Z,0
2018-08-06T03:07:56.091Z,0
2018-08-06T03:08:37.541Z,0
2018-08-06T03:09:18.113Z,0
2018-08-06T03:09:58.740Z,0
2018-08-06T03:10:39.277Z,0
2018-08-06T03:11:19.841Z,0
2018-08-06T03:12:00.403Z,0
2018-08-06T03:12:41.082Z,0
2018-08-06T03:13:21.663Z,0
2018-08-06T03:14:02.249Z,0
2018-08-06T03:14:42.815Z,0
2018-08-06T03:15:23.381Z,0
2018-08-06T03:16:03.954Z,0
2018-08-06T03:16:44.509Z,0
2018-08-06T03:17:25.061Z,0
2018-08-06T03:18:05.629Z,0
2018-08-06T03:18:46.220Z,0
2018-08-06T03:19:26.797Z,0
2018-08-06T03:20:07.375Z,0
2018-08-06T03:20:48.006Z,0
2018-08-06T03:21:28.723Z,0
2018-08-06T03:22:09.288Z,0
2018-08-06T03:22:49.856Z,0
2018-08-06T03:23:30.425Z,0
2018-08-06T03:24:11.043Z,0
2018-08-06T03:24:51.612Z,0
2018-08-06T03:25:32.162Z,0
2018-08-06T03:26:12.734Z,0
2018-08-06T03:26:53.306Z,0
2018-08-06T03:27:33.946Z,0
2018-08-06T03:28:14.534Z,0
2018-08-06T03:28:55.101Z,0
2018-08-06T03:29:35.700Z,0
2018-08-06T03:30:16.223Z,0
2018-08-06T03:30:56.780Z,0
2018-08-06T03:31:37.317Z,0
2018-08-06T03:32:18.037Z,0
2018-08-06T03:32:58.598Z,0
2018-08-06T03:33:39.228Z,0
2018-08-06T03:34:19.789Z,0
2018-08-06T03:35:00.347Z,0
2018-08-06T03:35:40.910Z,0
2018-08-06T03:36:21.912Z,0
2018-08-06T03:37:02.584Z,0
2018-08-06T03:37:43.156Z,0
2018-08-06T03:38:23.742Z,0
2018-08-06T03:39:04.304Z,5
2018-08-06T03:39:44.864Z,5
2018-08-06T03:40:25.432Z,5
2018-08-06T03:41:06.011Z,5
2018-08-06T03:41:46.578Z,5
2018-08-06T03:42:27.149Z,5
2018-08-06T03:43:07.698Z,5
2018-08-06T03:43:48.293Z,5
2018-08-06T03:44:28.902Z,5
2018-08-06T03:45:09.466Z,5
2018-08-06T03:45:50.049Z,5
2018-08-06T03:46:30.619Z,5
2018-08-06T03:47:11.235Z,5
2018-08-06T03:47:51.810Z,5
2018-08-06T03:48:32.371Z,5
2018-08-06T03:49:12.938Z,5
2018-08-06T03:49:53.501Z,5
2018-08-06T03:50:34.064Z,5
2018-08-06T03:51:14.652Z,10
2018-08-06T03:51:55.235Z,10
2018-08-06T03:52:35.862Z,10
2018-08-06T03:53:16.357Z,10
2018-08-06T03:53:56.916Z,10
2018-08-06T03:54:37.486Z,10
2018-08-06T03:55:18.052Z,10
2018-08-06T03:55:58.631Z,10
2018-08-06T03:56:39.188Z,10
2018-08-06T03:57:19.752Z,10
2018-08-06T03:58:00.347Z,10
2018-08-06T03:58:40.912Z,10
2018-08-06T03:59:21.464Z,10
2018-08-06T04:00:02.040Z,10
2018-08-06T04:00:42.600Z,10
2018-08-06T04:01:23.203Z,10
2018-08-06T04:02:03.774Z,15
2018-08-06T04:02:44.313Z,15
2018-08-06T04:03:24.912Z,15
2018-08-06T04:04:05.474Z,15
2018-08-06T04:04:46.016Z,15
2018-08-06T04:05:26.582Z,15
2018-08-06T04:06:07.170Z,15
2018-08-06T04:06:47.755Z,15
2018-08-06T04:07:28.322Z,15
2018-08-06T04:08:08.929Z,15
2018-08-06T04:08:49.497Z,15
2018-08-06T04:09:30.065Z,15
2018-08-06T04:10:10.630Z,15
2018-08-06T04:10:51.214Z,15
2018-08-06T04:11:31.762Z,20
2018-08-06T04:12:12.354Z,20
2018-08-06T04:12:52.907Z,20
2018-08-06T04:13:33.544Z,20
2018-08-06T04:14:14.035Z,20
2018-08-06T04:14:54.606Z,20
2018-08-06T04:15:35.364Z,20
2018-08-06T04:16:15.876Z,20
2018-08-06T04:16:56.440Z,20
2018-08-06T04:17:37.012Z,20
2018-08-06T04:18:17.570Z,20
2018-08-06T04:18:58.139Z,20
2018-08-06T04:19:38.837Z,20
2018-08-06T04:20:19.245Z,20
2018-08-06T04:20:59.824Z,20
2018-08-06T04:21:40.385Z,25
2018-08-06T04:22:20.984Z,25
2018-08-06T04:23:01.552Z,25
2018-08-06T04:23:42.174Z,25
2018-08-06T04:24:22.970Z,25
2018-08-06T04:25:03.549Z,25
2018-08-06T04:25:44.121Z,25
2018-08-06T04:26:24.699Z,25
2018-08-06T04:27:05.259Z,25
2018-08-06T04:27:45.835Z,25
2018-08-06T04:28:26.388Z,25
2018-08-06T04:29:06.956Z,25
2018-08-06T04:29:47.517Z,25
2018-08-06T04:30:28.066Z,25
2018-08-06T04:31:08.689Z,30
2018-08-06T04:31:49.245Z,30
2018-08-06T04:32:29.793Z,30
2018-08-06T04:33:10.435Z,30
2018-08-06T04:33:50.947Z,30
2018-08-06T04:34:31.708Z,30
2018-08-06T04:35:12.270Z,30
2018-08-06T04:35:52.827Z,30
2018-08-06T04:36:33.437Z,30
2018-08-06T04:37:13.986Z,30
2018-08-06T04:37:54.547Z,30
2018-08-06T04:38:35.215Z,30
2018-08-06T04:39:15.670Z,30
2018-08-06T04:39:56.296Z,30
2018-08-06T04:40:36.800Z,30
2018-08-06T04:41:17.359Z,35
2018-08-06T04:41:57.921Z,35
2018-08-06T04:42:38.476Z,35
2018-08-06T04:43:19.063Z,35
2018-08-06T04:43:59.807Z,35
2018-08-06T04:44:40.371Z,35
2018-08-06T04:45:20.998Z,35
2018-08-06T04:46:01.617Z,35
2018-08-06T04:46:42.141Z,35
2018-08-06T04:47:22.675Z,35
2018-08-06T04:48:03.245Z,35
2018-08-06T04:48:43.794Z,35
2018-08-06T04:49:24.382Z,35
2018-08-06T04:50:04.978Z,35
2018-08-06T04:50:45.532Z,40
2018-08-06T04:51:26.258Z,40
2018-08-06T04:52:06.719Z,40
2018-08-06T04:52:47.473Z,40
2018-08-06T04:53:28.041Z,40
2018-08-06T04:54:08.604Z,40
2018-08-06T04:54:49.208Z,40
2018-08-06T04:55:29.780Z,40
2018-08-06T04:56:10.347Z,40
2018-08-06T04:56:50.912Z,40
2018-08-06T04:57:31.477Z,40
2018-08-06T04:58:12.045Z,40
2018-08-06T04:58:52.615Z,45
2018-08-06T04:59:33.267Z,45
2018-08-06T05:00:13.742Z,45
2018-08-06T05:00:54.323Z,45
2018-08-06T05:01:34.914Z,45
2018-08-06T05:02:15.544Z,45
2018-08-06T05:02:56.100Z,45
2018-08-06T05:03:36.665Z,45
2018-08-06T05:04:17.242Z,45
2018-08-06T05:04:57.796Z,45
2018-08-06T05:05:38.373Z,45
2018-08-06T05:06:18.977Z,45
2018-08-06T05:06:59.607Z,45
2018-08-06T05:07:40.128Z,50
2018-08-06T05:08:20.694Z,50
2018-08-06T05:09:01.301Z,50
2018-08-06T05:09:41.872Z,50
2018-08-06T05:10:22.440Z,50
2018-08-06T05:11:03.005Z,50
2018-08-06T05:11:43.588Z,50
2018-08-06T05:12:24.173Z,50
2018-08-06T05:13:04.776Z,50
2018-08-06T05:13:45.415Z,50
2018-08-06T05:14:25.900Z,50
2018-08-06T05:15:06.460Z,55
2018-08-06T05:15:47.038Z,55
2018-08-06T05:16:27.604Z,55
2018-08-06T05:17:08.177Z,55
2018-08-06T05:17:48.740Z,55
2018-08-06T05:18:29.301Z,55
2018-08-06T05:19:09.869Z,55
2018-08-06T05:19:50.434Z,55
2018-08-06T05:20:30.992Z,55
2018-08-06T05:21:11.573Z,55
2018-08-06T05:21:52.153Z,55
2018-08-06T05:22:32.725Z,55
2018-08-06T05:23:13.356Z,60
2018-08-06T05:23:53.930Z,60
2018-08-06T05:24:34.519Z,60
2018-08-06T05:25:15.092Z,60
2018-08-06T05:25:55.640Z,60
2018-08-06T05:26:36.215Z,60
2018-08-06T05:27:16.790Z,60
2018-08-06T05:27:57.353Z,60
2018-08-06T05:28:37.921Z,60
2018-08-06T05:29:18.482Z,60
2018-08-06T05:29:59.033Z,65
2018-08-06T05:30:39.596Z,65
2018-08-06T05:31:20.166Z,65
2018-08-06T05:32:00.728Z,65
2018-08-06T05:32:41.300Z,65
2018-08-06T05:33:21.865Z,65
2018-08-06T05:34:02.513Z,65
2018-08-06T05:34:43.081Z,65
2018-08-06T05:35:23.636Z,65
2018-08-06T05:36:04.179Z,70
2018-08-06T05:36:44.967Z,70
2018-08-06T05:37:25.413Z,70
2018-08-06T05:38:06.052Z,70
2018-08-06T05:38:46.614Z,70
2018-08-06T05:39:27.236Z,70
2018-08-06T05:40:07.880Z,75
2018-08-06T05:40:48.433Z,75
2018-08-06T05:41:29.382Z,75
2018-08-06T05:42:09.983Z,80
2018-08-06T05:42:50.586Z,80
2018-08-06T05:43:31.195Z,85
2018-08-06T05:44:11.772Z,85
2018-08-06T05:44:52.369Z,85
2018-08-06T05:45:32.934Z,165
2018-08-06T05:46:13.606Z,610
2018-08-06T05:46:54.168Z,1190
2018-08-06T05:47:34.716Z,1615
2018-08-06T05:48:15.334Z,1705
2018-08-06T05:48:55.972Z,1735
2018-08-06T05:49:36.662Z,1735
2018-08-06T05:50:17.328Z,1775
2018-08-06T05:50:57.900Z,1775
2018-08-06T05:51:38.520Z,1805
2018-08-06T05:52:19.094Z,1845
2018-08-06T05:52:59.698Z,1825
2018-08-06T05:53:40.278Z,1820
2018-08-06T05:54:20.830Z,1720
2018-08-06T05:55:01.401Z,1620
2018-08-06T05:55:41.971Z,1665
2018-08-06T05:56:22.542Z,1735
2018-08-06T05:57:03.089Z,1790
2018-08-06T05:57:43.694Z,1825
2018-08-06T05:58:24.234Z,1810
2018-08-06T05:59:04.766Z,1845
2018-08-06T05:59:45.353Z,1910
2018-08-06T06:00:25.943Z,1845
2018-08-06T06:01:06.492Z,1725
2018-08-06T06:01:47.071Z,1725
2018-08-06T06:02:27.648Z,1770
2018-08-06T06:03:08.357Z,1815
2018-08-06T06:03:48.925Z,1855
2018-08-06T06:04:29.499Z,1945
2018-08-06T06:05:10.096Z,1920
2018-08-06T06:05:50.650Z,1850
2018-08-06T06:06:31.218Z,1810
2018-08-06T06:07:11.804Z,1845
2018-08-06T06:07:52.368Z,1705
2018-08-06T06:08:32.946Z,1495
2018-08-06T06:09:13.519Z,1460
2018-08-06T06:09:54.079Z,1750
2018-08-06T06:10:34.657Z,1975
2018-08-06T06:11:15.269Z,1960
2018-08-06T06:11:55.855Z,1855
2018-08-06T06:12:36.565Z,1775
2018-08-06T06:13:17.316Z,1735
2018-08-06T06:13:57.889Z,1870
2018-08-06T06:14:38.469Z,1945
2018-08-06T06:15:19.060Z,2050
2018-08-06T06:15:59.615Z,2025
2018-08-06T06:16:40.187Z,1935
2018-08-06T06:17:20.795Z,1850
2018-08-06T06:18:01.370Z,1895
2018-08-06T06:18:41.952Z,1930
2018-08-06T06:19:22.528Z,1965
2018-08-06T06:20:03.096Z,1960
2018-08-06T06:20:43.678Z,1995
2018-08-06T06:21:24.270Z,2045
2018-08-06T06:22:04.871Z,2025
2018-08-06T06:22:45.569Z,2060
2018-08-06T06:23:26.196Z,2030
2018-08-06T06:24:06.761Z,1975
2018-08-06T06:24:47.343Z,1965
2018-08-06T06:25:27.925Z,2010
2018-08-06T06:26:08.504Z,2030
2018-08-06T06:26:49.075Z,2005
2018-08-06T06:27:29.697Z,2035
2018-08-06T06:28:10.252Z,2045
2018-08-06T06:28:50.874Z,1995
2018-08-06T06:29:31.534Z,2040
2018-08-06T06:30:12.023Z,2110
2018-08-06T06:30:52.635Z,2115
2018-08-06T06:31:33.227Z,2075
2018-08-06T06:32:13.804Z,2080
2018-08-06T06:32:54.486Z,2060
2018-08-06T06:33:35.128Z,2055
2018-08-06T06:34:15.699Z,2110
2018-08-06T06:34:56.296Z,2095
2018-08-06T06:35:36.828Z,2105
2018-08-06T06:36:17.408Z,2095
2018-08-06T06:36:57.982Z,2030
2018-08-06T06:37:38.556Z,2085
2018-08-06T06:38:19.120Z,2145
2018-08-06T06:38:59.695Z,2085
2018-08-06T06:39:40.281Z,2030
2018-08-06T06:40:20.843Z,2060
2018-08-06T06:41:01.416Z,2075
2018-08-06T06:41:42.041Z,2015
2018-08-06T06:42:22.653Z,1960
2018-08-06T06:43:03.217Z,1960
2018-08-06T06:43:43.795Z,2020
2018-08-06T06:44:24.377Z,2010
2018-08-06T06:45:04.948Z,2000
2018-08-06T06:45:45.572Z,2095
2018-08-06T06:46:26.172Z,2040
2018-08-06T06:47:06.769Z,2015
2018-08-06T06:47:47.345Z,2055
2018-08-06T06:48:27.951Z,2095
2018-08-06T06:49:08.552Z,2140
2018-08-06T06:49:49.125Z,2145
2018-08-06T06:50:29.718Z,2090
2018-08-06T06:51:10.302Z,2090
2018-08-06T06:51:50.874Z,2070
2018-08-06T06:52:31.513Z,2035
2018-08-06T06:53:12.184Z,1975
2018-08-06T06:53:52.776Z,1990
2018-08-06T06:54:33.454Z,1995
2018-08-06T06:55:13.938Z,2050
2018-08-06T06:55:54.577Z,2140
2018-08-06T06:56:36.181Z,2100
2018-08-06T06:57:16.811Z,2090
2018-08-06T06:57:57.361Z,2015
2018-08-06T06:58:37.913Z,2060
2018-08-06T06:59:18.462Z,1735
2018-08-06T06:59:59.183Z,330
2018-08-06T07:00:39.688Z,1910
2018-08-06T07:01:20.278Z,1995
2018-08-06T07:02:00.853Z,2060
2018-08-06T07:02:41.976Z,2100
2018-08-06T07:03:22.602Z,2120
2018-08-06T07:04:03.344Z,2140
2018-08-06T07:04:43.933Z,2210
2018-08-06T07:05:24.531Z,2180
2018-08-06T07:06:05.107Z,2160
2018-08-06T07:06:45.705Z,2115
2018-08-06T07:07:26.270Z,2095
2018-08-06T07:08:06.822Z,2075
2018-08-06T07:08:47.406Z,2035
2018-08-06T07:09:28.155Z,2030
2018-08-06T07:10:08.883Z,2080
2018-08-06T07:10:49.417Z,2055
2018-08-06T07:11:30.223Z,2055
2018-08-06T07:12:10.794Z,2130
2018-08-06T07:12:51.365Z,2095
2018-08-06T07:13:31.935Z,2025
2018-08-06T07:14:13.677Z,1975
2018-08-06T07:14:53.454Z,1945
2018-08-06T07:15:34.639Z,1875
2018-08-06T07:16:14.774Z,1960
2018-08-06T07:16:55.670Z,1905
2018-08-06T07:17:36.253Z,1850
2018-08-06T07:18:16.849Z,995
2018-08-06T07:18:57.419Z,840
2018-08-06T07:19:38.611Z,1775
2018-08-06T07:20:19.311Z,1635
2018-08-06T07:20:59.840Z,1155
2018-08-06T07:21:41.044Z,1370
2018-08-06T07:22:21.612Z,1355
2018-08-06T07:23:02.246Z,1265
2018-08-06T07:23:42.813Z,1175
2018-08-06T07:24:23.403Z,1030
2018-08-06T07:25:04.103Z,930
2018-08-06T07:25:44.606Z,870
2018-08-06T07:26:25.410Z,825
2018-08-06T07:27:06.177Z,630
2018-08-06T07:27:46.784Z,670
2018-08-06T07:28:27.367Z,770
2018-08-06T07:29:07.943Z,750
2018-08-06T07:29:48.519Z,710
2018-08-06T07:30:29.096Z,715
2018-08-06T07:31:09.676Z,685
2018-08-06T07:31:50.228Z,650
2018-08-06T07:32:30.800Z,630
2018-08-06T07:33:11.372Z,625
2018-08-06T07:33:51.942Z,615
2018-08-06T07:34:32.522Z,610
2018-08-06T07:35:13.134Z,615
2018-08-06T07:35:53.698Z,615
2018-08-06T07:36:34.315Z,605
2018-08-06T07:37:14.837Z,595
2018-08-06T07:37:55.523Z,595
2018-08-06T07:38:36.103Z,580
2018-08-06T07:39:16.693Z,580
2018-08-06T07:39:57.266Z,590
2018-08-06T07:40:37.844Z,590
2018-08-06T07:41:18.423Z,585
2018-08-06T07:41:58.982Z,585
2018-08-06T07:42:39.558Z,590
2018-08-06T07:43:20.247Z,595
2018-08-06T07:44:00.715Z,605
2018-08-06T07:44:41.298Z,600
2018-08-06T07:45:21.874Z,605
2018-08-06T07:46:02.452Z,605
2018-08-06T07:46:43.032Z,610
2018-08-06T07:47:23.622Z,610
2018-08-06T07:48:04.189Z,605
2018-08-06T07:48:44.766Z,590
2018-08-06T07:49:25.335Z,585
2018-08-06T07:50:05.908Z,585
2018-08-06T07:50:46.470Z,575
2018-08-06T07:51:27.058Z,575
2018-08-06T07:52:07.624Z,580
2018-08-06T07:52:48.194Z,575
2018-08-06T07:53:28.783Z,570
2018-08-06T07:54:09.368Z,560
2018-08-06T07:54:49.916Z,560
2018-08-06T07:55:30.486Z,560
2018-08-06T07:56:11.106Z,565
2018-08-06T07:56:51.725Z,575
2018-08-06T07:57:32.326Z,570
2018-08-06T07:58:12.859Z,565
2018-08-06T07:58:53.505Z,550
2018-08-06T07:59:34.094Z,550
2018-08-06T08:00:14.637Z,555
2018-08-06T08:00:55.211Z,560
2018-08-06T08:01:35.793Z,555
2018-08-06T08:02:16.385Z,550
2018-08-06T08:02:56.959Z,545
2018-08-06T08:03:37.538Z,525
2018-08-06T08:04:18.120Z,530
2018-08-06T08:04:58.898Z,525
2018-08-06T08:05:39.489Z,520
2018-08-06T08:06:20.264Z,505
2018-08-06T08:07:00.862Z,485
2018-08-06T08:07:41.430Z,445
2018-08-06T08:08:22.047Z,435
2018-08-06T08:09:02.628Z,410
2018-08-06T08:09:43.196Z,385
2018-08-06T08:10:23.771Z,390
2018-08-06T08:11:04.374Z,390
2018-08-06T08:11:44.930Z,395
2018-08-06T08:12:25.503Z,390
2018-08-06T08:13:06.080Z,385
2018-08-06T08:13:46.686Z,390
2018-08-06T08:14:27.272Z,380
2018-08-06T08:15:07.849Z,365
2018-08-06T08:15:48.429Z,360
2018-08-06T08:16:28.999Z,355
2018-08-06T08:17:09.597Z,355
2018-08-06T08:17:50.156Z,345
2018-08-06T08:18:30.731Z,345
2018-08-06T08:19:11.285Z,345
2018-08-06T08:19:51.928Z,335
2018-08-06T08:20:32.442Z,335
2018-08-06T08:21:13.084Z,330
2018-08-06T08:21:53.569Z,330
2018-08-06T08:22:34.147Z,315
2018-08-06T08:23:14.726Z,310
2018-08-06T08:23:55.482Z,305
2018-08-06T08:24:36.181Z,300
2018-08-06T08:25:16.782Z,300
2018-08-06T08:25:57.340Z,290
2018-08-06T08:26:37.917Z,285
2018-08-06T08:27:18.507Z,275
2018-08-06T08:27:59.059Z,270
2018-08-06T08:28:39.653Z,270
2018-08-06T08:29:20.230Z,265
2018-08-06T08:30:00.798Z,265
2018-08-06T08:30:41.405Z,255
2018-08-06T08:31:21.998Z,255
2018-08-06T08:32:02.547Z,250
2018-08-06T08:32:43.121Z,245
2018-08-06T08:33:23.752Z,240
2018-08-06T08:34:04.435Z,235
2018-08-06T08:34:44.953Z,235
2018-08-06T08:35:25.537Z,225
2018-08-06T08:36:06.872Z,225
2018-08-06T08:36:47.448Z,220
2018-08-06T08:37:28.042Z,215
2018-08-06T08:38:08.625Z,210
2018-08-06T08:38:49.614Z,210
2018-08-06T08:39:30.219Z,210
2018-08-06T08:40:11.158Z,205
2018-08-06T08:40:52.074Z,205
2018-08-06T08:41:32.711Z,200
2018-08-06T08:42:13.618Z,200
2018-08-06T08:42:54.372Z,195
2018-08-06T08:43:35.041Z,190
2018-08-06T08:44:17.036Z,190
2018-08-06T08:44:57.737Z,190
2018-08-06T08:45:38.387Z,185
2018-08-06T08:46:19.227Z,185
2018-08-06T08:47:00.195Z,180
2018-08-06T08:47:40.941Z,180
2018-08-06T08:48:21.746Z,175
2018-08-06T08:49:02.693Z,175
2018-08-06T08:49:43.442Z,170
2018-08-06T08:50:24.411Z,170
2018-08-06T08:51:04.986Z,165
2018-08-06T08:51:45.625Z,165
2018-08-06T08:52:26.715Z,160
2018-08-06T08:53:07.602Z,160
2018-08-06T08:53:48.198Z,160
2018-08-06T08:54:28.959Z,155
2018-08-06T08:55:09.615Z,150
2018-08-06T08:55:50.317Z,150
2018-08-06T08:56:31.300Z,150
2018-08-06T08:57:12.849Z,150
2018-08-06T08:57:54.035Z,145
2018-08-06T08:58:34.881Z,145
2018-08-06T08:59:15.573Z,145
2018-08-06T08:59:57.120Z,140
2018-08-06T09:00:39.236Z,140
2018-08-06T09:01:20.404Z,140
2018-08-06T09:02:02.219Z,135
2018-08-06T09:02:43.866Z,135
2018-08-06T09:03:25.295Z,135
2018-08-06T09:04:06.285Z,135
2018-08-06T09:04:48.047Z,135
2018-08-06T09:05:29.014Z,130
2018-08-06T09:06:10.169Z,130
2018-08-06T09:06:51.257Z,130
2018-08-06T09:07:31.887Z,130
2018-08-06T09:08:12.678Z,125
2018-08-06T09:08:53.379Z,125
2018-08-06T09:09:34.178Z,125
2018-08-06T09:10:14.867Z,125
2018-08-06T09:10:55.821Z,125
2018-08-06T09:11:36.938Z,120
2018-08-06T09:12:17.686Z,120
2018-08-06T09:12:58.576Z,120
2018-08-06T09:13:39.424Z,120
2018-08-06T09:14:20.155Z,115
2018-08-06T09:15:00.956Z,115
2018-08-06T09:15:41.891Z,115
2018-08-06T09:16:22.564Z,115
2018-08-06T09:17:03.303Z,115
2018-08-06T09:17:43.998Z,110
2018-08-06T09:18:24.821Z,110
2018-08-06T09:19:05.829Z,110
2018-08-06T09:19:46.587Z,110
2018-08-06T09:20:27.608Z,110
2018-08-06T09:21:08.675Z,110
2018-08-06T09:21:49.888Z,105
2018-08-06T09:22:30.675Z,105
2018-08-06T09:23:11.615Z,105
2018-08-06T09:23:52.494Z,105
2018-08-06T09:24:33.520Z,105
2018-08-06T09:25:14.704Z,105
2018-08-06T09:25:56.318Z,105
2018-08-06T09:26:37.079Z,105
2018-08-06T09:27:18.931Z,100
2018-08-06T09:27:59.644Z,100
2018-08-06T09:28:40.314Z,100
2018-08-06T09:29:21.239Z,100
2018-08-06T09:30:02.008Z,100
2018-08-06T09:30:42.805Z,100
2018-08-06T09:31:23.444Z,100
2018-08-06T09:32:04.748Z,100
2018-08-06T09:32:45.349Z,100
2018-08-06T09:33:26.471Z,100
2018-08-06T09:34:07.441Z,100
2018-08-06T09:34:48.325Z,100
2018-08-06T09:35:28.957Z,100
2018-08-06T09:36:09.569Z,100